[Closed] PG ATC @ TAPA Carribean

TAPA - Antigua - V C Bird Intl

  • Departure/Arrivals - Runway 07
  • 9 knot wind from 80˚

METAR TAPA 130700Z 08009KT 9999 SCT017 25/21 Q1016 NOSIG

1 Like